sensor_id;sensor_type;location;lat;lon;timestamp;P1;durP1;ratioP1;P2;durP2;ratioP2
73100;SDS011;61288;53.446;-2.266;2023-04-15T00:00:37;17.05;;;7.95;;
73100;SDS011;61288;53.446;-2.266;2023-04-15T00:03:02;19.15;;;8.10;;
73100;SDS011;61288;53.446;-2.266;2023-04-15T00:05:31;16.02;;;7.75;;
73100;SDS011;61288;53.446;-2.266;2023-04-15T00:07:57;15.98;;;7.57;;
73100;SDS011;61288;53.446;-2.266;2023-04-15T00:10:26;19.38;;;9.45;;
73100;SDS011;61288;53.446;-2.266;2023-04-15T00:12:52;18.63;;;8.60;;
73100;SDS011;61288;53.446;-2.266;2023-04-15T00:15:19;16.67;;;7.50;;
73100;SDS011;61288;53.446;-2.266;2023-04-15T00:17:45;17.80;;;7.72;;
73100;SDS011;61288;53.446;-2.266;2023-04-15T00:20:11;16.13;;;7.60;;
73100;SDS011;61288;53.446;-2.266;2023-04-15T00:22:38;17.10;;;7.35;;
73100;SDS011;61288;53.446;-2.266;2023-04-15T00:25:04;17.20;;;7.68;;
73100;SDS011;61288;53.446;-2.266;2023-04-15T00:27:29;18.85;;;7.88;;
73100;SDS011;61288;53.446;-2.266;2023-04-15T00:29:55;17.48;;;7.40;;
73100;SDS011;61288;53.446;-2.266;2023-04-15T00:32:21;17.08;;;7.03;;
73100;SDS011;61288;53.446;-2.266;2023-04-15T00:34:47;19.35;;;7.45;;
73100;SDS011;61288;53.446;-2.266;2023-04-15T00:37:13;17.02;;;7.97;;
73100;SDS011;61288;53.446;-2.266;2023-04-15T00:39:39;22.92;;;9.07;;
73100;SDS011;61288;53.446;-2.266;2023-04-15T00:42:04;16.67;;;7.60;;
73100;SDS011;61288;53.446;-2.266;2023-04-15T00:44:31;18.42;;;8.30;;
73100;SDS011;61288;53.446;-2.266;2023-04-15T00:46:57;16.70;;;8.10;;
73100;SDS011;61288;53.446;-2.266;2023-04-15T00:49:24;17.73;;;7.80;;
73100;SDS011;61288;53.446;-2.266;2023-04-15T00:51:53;16.83;;;7.50;;
73100;SDS011;61288;53.446;-2.266;2023-04-15T00:54:19;18.15;;;8.50;;
73100;SDS011;61288;53.446;-2.266;2023-04-15T00:56:45;17.85;;;7.90;;
73100;SDS011;61288;53.446;-2.266;2023-04-15T00:59:12;19.42;;;9.13;;
73100;SDS011;61288;53.446;-2.266;2023-04-15T01:01:39;17.58;;;7.85;;
73100;SDS011;61288;53.446;-2.266;2023-04-15T01:04:04;17.13;;;7.63;;
73100;SDS011;61288;53.446;-2.266;2023-04-15T01:06:34;19.35;;;7.63;;
73100;SDS011;61288;53.446;-2.266;2023-04-15T01:08:59;20.00;;;8.68;;
73100;SDS011;61288;53.446;-2.266;2023-04-15T01:11:25;17.52;;;7.72;;
73100;SDS011;61288;53.446;-2.266;2023-04-15T01:13:51;18.30;;;8.27;;
73100;SDS011;61288;53.446;-2.266;2023-04-15T01:16:17;20.55;;;8.75;;
73100;SDS011;61288;53.446;-2.266;2023-04-15T01:18:43;18.10;;;8.45;;
73100;SDS011;61288;53.446;-2.266;2023-04-15T01:21:10;17.63;;;7.38;;
73100;SDS011;61288;53.446;-2.266;2023-04-15T01:23:36;19.58;;;8.52;;
73100;SDS011;61288;53.446;-2.266;2023-04-15T01:26:06;19.73;;;8.00;;
73100;SDS011;61288;53.446;-2.266;2023-04-15T01:28:36;19.30;;;8.20;;
73100;SDS011;61288;53.446;-2.266;2023-04-15T01:31:09;21.10;;;8.70;;
73100;SDS011;61288;53.446;-2.266;2023-04-15T01:33:39;20.48;;;8.73;;
73100;SDS011;61288;53.446;-2.266;2023-04-15T01:36:07;21.58;;;8.13;;
73100;SDS011;61288;53.446;-2.266;2023-04-15T01:38:34;20.58;;;9.57;;
73100;SDS011;61288;53.446;-2.266;2023-04-15T01:41:03;20.92;;;8.68;;
73100;SDS011;61288;53.446;-2.266;2023-04-15T01:43:30;18.48;;;8.68;;
73100;SDS011;61288;53.446;-2.266;2023-04-15T01:45:57;18.83;;;8.35;;
73100;SDS011;61288;53.446;-2.266;2023-04-15T01:48:23;18.83;;;8.50;;
73100;SDS011;61288;53.446;-2.266;2023-04-15T01:50:49;18.23;;;8.48;;
73100;SDS011;61288;53.446;-2.266;2023-04-15T01:53:15;18.98;;;7.72;;
73100;SDS011;61288;53.446;-2.266;2023-04-15T01:55:41;17.98;;;8.07;;
73100;SDS011;61288;53.446;-2.266;2023-04-15T01:58:06;18.10;;;8.13;;
73100;SDS011;61288;53.446;-2.266;2023-04-15T02:00:32;18.38;;;8.00;;
73100;SDS011;61288;53.446;-2.266;2023-04-15T02:02:58;17.58;;;7.70;;
73100;SDS011;61288;53.446;-2.266;2023-04-15T02:05:24;17.02;;;7.22;;
73100;SDS011;61288;53.446;-2.266;2023-04-15T02:07:50;18.13;;;8.15;;
73100;SDS011;61288;53.446;-2.266;2023-04-15T02:10:16;18.92;;;7.47;;
73100;SDS011;61288;53.446;-2.266;2023-04-15T02:12:42;18.35;;;7.97;;
73100;SDS011;61288;53.446;-2.266;2023-04-15T02:15:08;17.77;;;7.60;;
73100;SDS011;61288;53.446;-2.266;2023-04-15T02:17:35;17.48;;;7.55;;
73100;SDS011;61288;53.446;-2.266;2023-04-15T02:20:02;17.75;;;7.55;;
73100;SDS011;61288;53.446;-2.266;2023-04-15T02:22:30;19.35;;;8.25;;
73100;SDS011;61288;53.446;-2.266;2023-04-15T02:24:55;17.48;;;7.85;;
73100;SDS011;61288;53.446;-2.266;2023-04-15T02:27:21;19.95;;;7.80;;
73100;SDS011;61288;53.446;-2.266;2023-04-15T02:29:47;16.77;;;7.70;;
73100;SDS011;61288;53.446;-2.266;2023-04-15T02:32:15;19.35;;;8.73;;
73100;SDS011;61288;53.446;-2.266;2023-04-15T02:34:41;19.88;;;8.32;;
73100;SDS011;61288;53.446;-2.266;2023-04-15T02:37:09;16.98;;;7.28;;
73100;SDS011;61288;53.446;-2.266;2023-04-15T02:39:35;19.00;;;7.97;;
73100;SDS011;61288;53.446;-2.266;2023-04-15T02:42:01;18.08;;;8.05;;
73100;SDS011;61288;53.446;-2.266;2023-04-15T02:44:27;18.33;;;7.60;;
73100;SDS011;61288;53.446;-2.266;2023-04-15T02:46:53;18.65;;;7.57;;
73100;SDS011;61288;53.446;-2.266;2023-04-15T02:49:19;17.63;;;7.95;;
73100;SDS011;61288;53.446;-2.266;2023-04-15T02:51:45;16.75;;;6.82;;
73100;SDS011;61288;53.446;-2.266;2023-04-15T02:54:24;17.40;;;7.85;;
73100;SDS011;61288;53.446;-2.266;2023-04-15T02:56:50;19.38;;;8.23;;
73100;SDS011;61288;53.446;-2.266;2023-04-15T02:59:19;16.50;;;8.23;;
73100;SDS011;61288;53.446;-2.266;2023-04-15T03:01:46;18.67;;;8.13;;
73100;SDS011;61288;53.446;-2.266;2023-04-15T03:04:11;18.08;;;8.27;;
73100;SDS011;61288;53.446;-2.266;2023-04-15T03:06:38;17.27;;;7.78;;
73100;SDS011;61288;53.446;-2.266;2023-04-15T03:09:03;18.70;;;7.43;;
73100;SDS011;61288;53.446;-2.266;2023-04-15T03:11:29;18.75;;;8.20;;
73100;SDS011;61288;53.446;-2.266;2023-04-15T03:13:55;15.88;;;7.15;;
73100;SDS011;61288;53.446;-2.266;2023-04-15T03:16:21;17.05;;;7.57;;
73100;SDS011;61288;53.446;-2.266;2023-04-15T03:18:46;17.17;;;7.32;;
73100;SDS011;61288;53.446;-2.266;2023-04-15T03:21:12;14.40;;;6.25;;
73100;SDS011;61288;53.446;-2.266;2023-04-15T03:23:37;17.33;;;8.15;;
73100;SDS011;61288;53.446;-2.266;2023-04-15T03:26:03;16.27;;;7.57;;
73100;SDS011;61288;53.446;-2.266;2023-04-15T03:28:29;17.73;;;7.68;;
73100;SDS011;61288;53.446;-2.266;2023-04-15T03:30:55;15.90;;;7.18;;
73100;SDS011;61288;53.446;-2.266;2023-04-15T03:33:20;17.55;;;7.28;;
73100;SDS011;61288;53.446;-2.266;2023-04-15T03:35:46;17.83;;;7.35;;
73100;SDS011;61288;53.446;-2.266;2023-04-15T03:38:11;15.88;;;7.35;;
73100;SDS011;61288;53.446;-2.266;2023-04-15T03:40:40;16.55;;;7.65;;
73100;SDS011;61288;53.446;-2.266;2023-04-15T03:43:06;18.13;;;8.07;;
73100;SDS011;61288;53.446;-2.266;2023-04-15T03:45:31;25.42;;;9.30;;
73100;SDS011;61288;53.446;-2.266;2023-04-15T03:47:57;20.63;;;9.60;;
73100;SDS011;61288;53.446;-2.266;2023-04-15T03:50:23;19.33;;;8.63;;
73100;SDS011;61288;53.446;-2.266;2023-04-15T03:52:48;16.98;;;8.20;;
73100;SDS011;61288;53.446;-2.266;2023-04-15T03:55:17;20.20;;;8.50;;
73100;SDS011;61288;53.446;-2.266;2023-04-15T03:57:42;19.65;;;8.65;;
73100;SDS011;61288;53.446;-2.266;2023-04-15T04:00:09;16.50;;;6.07;;
73100;SDS011;61288;53.446;-2.266;2023-04-15T04:02:34;18.17;;;7.60;;
73100;SDS011;61288;53.446;-2.266;2023-04-15T04:05:00;20.73;;;9.07;;
73100;SDS011;61288;53.446;-2.266;2023-04-15T04:07:28;19.13;;;8.57;;
73100;SDS011;61288;53.446;-2.266;2023-04-15T04:09:56;20.77;;;8.68;;
73100;SDS011;61288;53.446;-2.266;2023-04-15T04:12:22;19.42;;;8.50;;
73100;SDS011;61288;53.446;-2.266;2023-04-15T04:14:48;18.02;;;7.75;;
73100;SDS011;61288;53.446;-2.266;2023-04-15T04:17:13;20.33;;;7.90;;
73100;SDS011;61288;53.446;-2.266;2023-04-15T04:19:39;19.25;;;8.25;;
73100;SDS011;61288;53.446;-2.266;2023-04-15T04:22:05;19.73;;;8.77;;
73100;SDS011;61288;53.446;-2.266;2023-04-15T04:24:31;19.67;;;8.68;;
73100;SDS011;61288;53.446;-2.266;2023-04-15T04:26:57;16.95;;;7.57;;
73100;SDS011;61288;53.446;-2.266;2023-04-15T04:29:23;19.77;;;8.75;;
73100;SDS011;61288;53.446;-2.266;2023-04-15T04:31:48;19.90;;;8.13;;
73100;SDS011;61288;53.446;-2.266;2023-04-15T04:34:15;20.05;;;8.18;;
73100;SDS011;61288;53.446;-2.266;2023-04-15T04:36:40;20.67;;;8.25;;
73100;SDS011;61288;53.446;-2.266;2023-04-15T04:39:06;20.27;;;8.40;;
73100;SDS011;61288;53.446;-2.266;2023-04-15T04:41:32;17.48;;;7.60;;
73100;SDS011;61288;53.446;-2.266;2023-04-15T04:43:58;18.65;;;7.60;;
73100;SDS011;61288;53.446;-2.266;2023-04-15T04:46:24;23.63;;;8.55;;
73100;SDS011;61288;53.446;-2.266;2023-04-15T04:48:50;17.98;;;6.95;;
73100;SDS011;61288;53.446;-2.266;2023-04-15T04:51:16;19.85;;;8.75;;
73100;SDS011;61288;53.446;-2.266;2023-04-15T04:53:42;22.63;;;8.95;;
73100;SDS011;61288;53.446;-2.266;2023-04-15T04:56:08;17.90;;;7.30;;
73100;SDS011;61288;53.446;-2.266;2023-04-15T04:58:34;18.35;;;7.75;;
73100;SDS011;61288;53.446;-2.266;2023-04-15T05:01:00;20.33;;;8.75;;
73100;SDS011;61288;53.446;-2.266;2023-04-15T05:03:27;19.48;;;8.63;;
73100;SDS011;61288;53.446;-2.266;2023-04-15T05:05:53;18.38;;;7.55;;
73100;SDS011;61288;53.446;-2.266;2023-04-15T05:08:18;20.52;;;8.13;;
73100;SDS011;61288;53.446;-2.266;2023-04-15T05:10:45;20.40;;;8.57;;
73100;SDS011;61288;53.446;-2.266;2023-04-15T05:13:10;18.02;;;8.43;;
73100;SDS011;61288;53.446;-2.266;2023-04-15T05:15:36;21.15;;;8.32;;
73100;SDS011;61288;53.446;-2.266;2023-04-15T05:18:05;20.15;;;8.50;;
73100;SDS011;61288;53.446;-2.266;2023-04-15T05:20:30;21.77;;;8.25;;
73100;SDS011;61288;53.446;-2.266;2023-04-15T05:22:56;19.50;;;8.07;;
73100;SDS011;61288;53.446;-2.266;2023-04-15T05:25:21;19.17;;;8.27;;
73100;SDS011;61288;53.446;-2.266;2023-04-15T05:27:47;20.40;;;8.77;;
73100;SDS011;61288;53.446;-2.266;2023-04-15T05:30:13;18.63;;;7.45;;
73100;SDS011;61288;53.446;-2.266;2023-04-15T05:32:39;18.55;;;8.07;;
73100;SDS011;61288;53.446;-2.266;2023-04-15T05:35:05;24.38;;;9.05;;
73100;SDS011;61288;53.446;-2.266;2023-04-15T05:37:32;18.10;;;7.53;;
73100;SDS011;61288;53.446;-2.266;2023-04-15T05:39:58;19.80;;;7.80;;
73100;SDS011;61288;53.446;-2.266;2023-04-15T05:42:23;19.75;;;8.60;;
73100;SDS011;61288;53.446;-2.266;2023-04-15T05:44:49;18.35;;;8.20;;
73100;SDS011;61288;53.446;-2.266;2023-04-15T05:47:14;20.50;;;7.97;;
73100;SDS011;61288;53.446;-2.266;2023-04-15T05:49:40;23.75;;;9.13;;
73100;SDS011;61288;53.446;-2.266;2023-04-15T05:52:05;22.20;;;9.13;;
73100;SDS011;61288;53.446;-2.266;2023-04-15T05:54:32;23.00;;;8.88;;
73100;SDS011;61288;53.446;-2.266;2023-04-15T05:57:00;21.45;;;7.60;;
73100;SDS011;61288;53.446;-2.266;2023-04-15T05:59:26;21.80;;;8.45;;
73100;SDS011;61288;53.446;-2.266;2023-04-15T06:01:52;24.00;;;8.68;;
73100;SDS011;61288;53.446;-2.266;2023-04-15T06:04:18;22.65;;;9.30;;
73100;SDS011;61288;53.446;-2.266;2023-04-15T06:06:43;22.27;;;9.32;;
73100;SDS011;61288;53.446;-2.266;2023-04-15T06:09:09;23.77;;;8.98;;
73100;SDS011;61288;53.446;-2.266;2023-04-15T06:11:35;25.48;;;9.93;;
73100;SDS011;61288;53.446;-2.266;2023-04-15T06:14:00;22.15;;;9.48;;
73100;SDS011;61288;53.446;-2.266;2023-04-15T06:16:26;23.52;;;10.43;;
73100;SDS011;61288;53.446;-2.266;2023-04-15T06:18:52;21.58;;;9.13;;
73100;SDS011;61288;53.446;-2.266;2023-04-15T06:21:18;24.40;;;9.57;;
73100;SDS011;61288;53.446;-2.266;2023-04-15T06:23:43;26.02;;;10.65;;
73100;SDS011;61288;53.446;-2.266;2023-04-15T06:26:09;25.77;;;11.02;;
73100;SDS011;61288;53.446;-2.266;2023-04-15T06:28:34;24.58;;;9.90;;
73100;SDS011;61288;53.446;-2.266;2023-04-15T06:31:00;26.92;;;10.90;;
73100;SDS011;61288;53.446;-2.266;2023-04-15T06:33:26;26.60;;;11.57;;
73100;SDS011;61288;53.446;-2.266;2023-04-15T06:35:52;23.40;;;10.88;;
73100;SDS011;61288;53.446;-2.266;2023-04-15T06:38:17;21.63;;;9.70;;
73100;SDS011;61288;53.446;-2.266;2023-04-15T06:40:42;22.52;;;9.13;;
73100;SDS011;61288;53.446;-2.266;2023-04-15T06:43:10;25.25;;;11.05;;
73100;SDS011;61288;53.446;-2.266;2023-04-15T06:45:37;20.85;;;9.93;;
73100;SDS011;61288;53.446;-2.266;2023-04-15T06:48:04;19.52;;;8.63;;
73100;SDS011;61288;53.446;-2.266;2023-04-15T06:50:32;19.77;;;8.52;;
73100;SDS011;61288;53.446;-2.266;2023-04-15T06:52:59;21.25;;;9.27;;
73100;SDS011;61288;53.446;-2.266;2023-04-15T06:55:25;21.40;;;8.90;;
73100;SDS011;61288;53.446;-2.266;2023-04-15T06:57:50;22.42;;;9.52;;
73100;SDS011;61288;53.446;-2.266;2023-04-15T07:00:16;19.55;;;9.05;;
73100;SDS011;61288;53.446;-2.266;2023-04-15T07:02:41;17.70;;;7.68;;
73100;SDS011;61288;53.446;-2.266;2023-04-15T07:05:08;18.80;;;8.80;;
73100;SDS011;61288;53.446;-2.266;2023-04-15T07:07:34;21.20;;;9.32;;
73100;SDS011;61288;53.446;-2.266;2023-04-15T07:10:00;20.55;;;9.23;;
73100;SDS011;61288;53.446;-2.266;2023-04-15T07:12:27;19.42;;;8.32;;
73100;SDS011;61288;53.446;-2.266;2023-04-15T07:14:53;22.88;;;8.70;;
73100;SDS011;61288;53.446;-2.266;2023-04-15T07:17:18;19.42;;;8.18;;
73100;SDS011;61288;53.446;-2.266;2023-04-15T07:19:44;21.33;;;9.45;;
73100;SDS011;61288;53.446;-2.266;2023-04-15T07:22:09;21.80;;;9.45;;
73100;SDS011;61288;53.446;-2.266;2023-04-15T07:24:35;21.05;;;8.65;;
73100;SDS011;61288;53.446;-2.266;2023-04-15T07:27:00;19.88;;;8.55;;
73100;SDS011;61288;53.446;-2.266;2023-04-15T07:29:26;17.48;;;8.48;;
73100;SDS011;61288;53.446;-2.266;2023-04-15T07:31:52;20.00;;;8.48;;
73100;SDS011;61288;53.446;-2.266;2023-04-15T07:34:18;18.52;;;8.25;;
73100;SDS011;61288;53.446;-2.266;2023-04-15T07:36:44;20.25;;;8.73;;
73100;SDS011;61288;53.446;-2.266;2023-04-15T07:39:10;19.80;;;8.35;;
73100;SDS011;61288;53.446;-2.266;2023-04-15T07:41:36;21.50;;;9.52;;
73100;SDS011;61288;53.446;-2.266;2023-04-15T07:44:02;21.75;;;9.38;;
73100;SDS011;61288;53.446;-2.266;2023-04-15T07:46:28;22.02;;;9.40;;
73100;SDS011;61288;53.446;-2.266;2023-04-15T07:48:53;19.13;;;8.20;;
73100;SDS011;61288;53.446;-2.266;2023-04-15T07:51:19;19.75;;;9.57;;
73100;SDS011;61288;53.446;-2.266;2023-04-15T07:53:48;18.35;;;8.18;;
73100;SDS011;61288;53.446;-2.266;2023-04-15T07:56:15;20.10;;;8.23;;
73100;SDS011;61288;53.446;-2.266;2023-04-15T07:58:41;20.55;;;8.05;;
73100;SDS011;61288;53.446;-2.266;2023-04-15T08:01:07;20.05;;;8.38;;
73100;SDS011;61288;53.446;-2.266;2023-04-15T08:03:33;18.17;;;7.65;;
73100;SDS011;61288;53.446;-2.266;2023-04-15T08:05:59;19.38;;;7.47;;
73100;SDS011;61288;53.446;-2.266;2023-04-15T08:08:24;19.30;;;7.63;;
73100;SDS011;61288;53.446;-2.266;2023-04-15T08:10:50;17.73;;;8.13;;
73100;SDS011;61288;53.446;-2.266;2023-04-15T08:13:16;15.75;;;7.15;;
73100;SDS011;61288;53.446;-2.266;2023-04-15T08:15:42;16.55;;;7.38;;
73100;SDS011;61288;53.446;-2.266;2023-04-15T08:18:07;15.57;;;7.13;;
73100;SDS011;61288;53.446;-2.266;2023-04-15T08:20:33;14.65;;;6.70;;
73100;SDS011;61288;53.446;-2.266;2023-04-15T08:23:01;13.75;;;6.20;;
73100;SDS011;61288;53.446;-2.266;2023-04-15T08:25:27;16.77;;;6.43;;
73100;SDS011;61288;53.446;-2.266;2023-04-15T08:27:56;12.85;;;5.55;;
73100;SDS011;61288;53.446;-2.266;2023-04-15T08:30:22;13.07;;;5.40;;
73100;SDS011;61288;53.446;-2.266;2023-04-15T08:32:48;10.18;;;4.40;;
73100;SDS011;61288;53.446;-2.266;2023-04-15T08:35:15;11.02;;;4.72;;
73100;SDS011;61288;53.446;-2.266;2023-04-15T08:37:41;12.00;;;4.63;;
73100;SDS011;61288;53.446;-2.266;2023-04-15T08:40:07;10.93;;;4.50;;
73100;SDS011;61288;53.446;-2.266;2023-04-15T08:42:36;12.40;;;5.63;;
73100;SDS011;61288;53.446;-2.266;2023-04-15T08:45:03;11.77;;;4.82;;
73100;SDS011;61288;53.446;-2.266;2023-04-15T08:47:30;12.20;;;5.32;;
73100;SDS011;61288;53.446;-2.266;2023-04-15T08:49:56;12.00;;;5.32;;
73100;SDS011;61288;53.446;-2.266;2023-04-15T08:52:23;12.15;;;4.90;;
73100;SDS011;61288;53.446;-2.266;2023-04-15T08:54:56;10.52;;;4.70;;
73100;SDS011;61288;53.446;-2.266;2023-04-15T08:57:27;12.63;;;5.20;;
73100;SDS011;61288;53.446;-2.266;2023-04-15T08:59:54;11.30;;;4.63;;
73100;SDS011;61288;53.446;-2.266;2023-04-15T09:02:22;11.20;;;4.25;;
73100;SDS011;61288;53.446;-2.266;2023-04-15T09:04:52;10.27;;;5.03;;
73100;SDS011;61288;53.446;-2.266;2023-04-15T09:07:18;11.88;;;4.45;;
73100;SDS011;61288;53.446;-2.266;2023-04-15T09:09:43;10.30;;;4.28;;
73100;SDS011;61288;53.446;-2.266;2023-04-15T09:12:10;10.00;;;4.13;;
73100;SDS011;61288;53.446;-2.266;2023-04-15T09:14:35;10.07;;;4.30;;
73100;SDS011;61288;53.446;-2.266;2023-04-15T09:17:03;9.52;;;4.10;;
73100;SDS011;61288;53.446;-2.266;2023-04-15T09:19:31;12.55;;;4.07;;
73100;SDS011;61288;53.446;-2.266;2023-04-15T09:21:58;9.68;;;4.35;;
73100;SDS011;61288;53.446;-2.266;2023-04-15T09:24:24;8.38;;;3.90;;
73100;SDS011;61288;53.446;-2.266;2023-04-15T09:26:57;11.25;;;4.10;;
73100;SDS011;61288;53.446;-2.266;2023-04-15T09:29:24;10.40;;;4.25;;
73100;SDS011;61288;53.446;-2.266;2023-04-15T09:31:50;9.15;;;3.97;;
73100;SDS011;61288;53.446;-2.266;2023-04-15T09:34:17;9.20;;;3.72;;
73100;SDS011;61288;53.446;-2.266;2023-04-15T09:39:20;8.73;;;3.85;;
73100;SDS011;61288;53.446;-2.266;2023-04-15T09:41:46;9.93;;;4.20;;
73100;SDS011;61288;53.446;-2.266;2023-04-15T09:44:28;7.70;;;3.05;;
73100;SDS011;61288;53.446;-2.266;2023-04-15T09:46:53;9.43;;;4.13;;
73100;SDS011;61288;53.446;-2.266;2023-04-15T09:49:19;8.18;;;3.30;;
73100;SDS011;61288;53.446;-2.266;2023-04-15T09:51:44;10.07;;;4.05;;
73100;SDS011;61288;53.446;-2.266;2023-04-15T09:54:12;11.55;;;4.00;;
73100;SDS011;61288;53.446;-2.266;2023-04-15T09:56:42;9.00;;;3.67;;
73100;SDS011;61288;53.446;-2.266;2023-04-15T09:59:11;10.18;;;3.85;;
73100;SDS011;61288;53.446;-2.266;2023-04-15T10:01:37;8.40;;;3.60;;
73100;SDS011;61288;53.446;-2.266;2023-04-15T10:04:05;7.70;;;3.60;;
73100;SDS011;61288;53.446;-2.266;2023-04-15T10:06:31;9.90;;;4.13;;
73100;SDS011;61288;53.446;-2.266;2023-04-15T10:08:58;8.18;;;3.50;;
73100;SDS011;61288;53.446;-2.266;2023-04-15T10:11:27;9.70;;;3.47;;
73100;SDS011;61288;53.446;-2.266;2023-04-15T10:13:55;9.45;;;3.60;;
73100;SDS011;61288;53.446;-2.266;2023-04-15T10:16:25;8.38;;;3.47;;
73100;SDS011;61288;53.446;-2.266;2023-04-15T10:18:56;7.72;;;3.35;;
73100;SDS011;61288;53.446;-2.266;2023-04-15T10:21:26;8.98;;;3.13;;
73100;SDS011;61288;53.446;-2.266;2023-04-15T10:23:52;8.23;;;3.20;;
73100;SDS011;61288;53.446;-2.266;2023-04-15T10:26:18;8.48;;;2.85;;
73100;SDS011;61288;53.446;-2.266;2023-04-15T10:28:44;6.32;;;2.70;;
73100;SDS011;61288;53.446;-2.266;2023-04-15T10:31:11;6.57;;;2.47;;
73100;SDS011;61288;53.446;-2.266;2023-04-15T10:33:40;8.25;;;2.60;;
73100;SDS011;61288;53.446;-2.266;2023-04-15T10:36:07;8.07;;;2.60;;
73100;SDS011;61288;53.446;-2.266;2023-04-15T10:38:37;6.38;;;2.80;;
73100;SDS011;61288;53.446;-2.266;2023-04-15T10:41:13;8.32;;;2.47;;
73100;SDS011;61288;53.446;-2.266;2023-04-15T10:43:45;6.68;;;2.65;;
73100;SDS011;61288;53.446;-2.266;2023-04-15T10:46:12;8.85;;;2.58;;
73100;SDS011;61288;53.446;-2.266;2023-04-15T10:48:45;6.85;;;2.70;;
73100;SDS011;61288;53.446;-2.266;2023-04-15T10:51:12;5.80;;;2.17;;
73100;SDS011;61288;53.446;-2.266;2023-04-15T10:53:38;10.25;;;2.58;;
73100;SDS011;61288;53.446;-2.266;2023-04-15T10:56:06;7.00;;;2.70;;
73100;SDS011;61288;53.446;-2.266;2023-04-15T10:58:40;7.85;;;2.78;;
73100;SDS011;61288;53.446;-2.266;2023-04-15T11:01:07;7.97;;;2.90;;
73100;SDS011;61288;53.446;-2.266;2023-04-15T11:03:36;8.10;;;2.80;;
73100;SDS011;61288;53.446;-2.266;2023-04-15T11:06:03;8.07;;;2.85;;
73100;SDS011;61288;53.446;-2.266;2023-04-15T11:11:20;16.35;;;8.25;;
73100;SDS011;61288;53.446;-2.266;2023-04-15T11:13:47;8.98;;;3.33;;
73100;SDS011;61288;53.446;-2.266;2023-04-15T11:16:13;7.70;;;3.10;;
73100;SDS011;61288;53.446;-2.266;2023-04-15T11:18:39;7.55;;;2.65;;
73100;SDS011;61288;53.446;-2.266;2023-04-15T11:21:06;8.50;;;2.95;;
73100;SDS011;61288;53.446;-2.266;2023-04-15T11:26:04;7.68;;;2.88;;
73100;SDS011;61288;53.446;-2.266;2023-04-15T11:28:34;7.47;;;2.55;;
73100;SDS011;61288;53.446;-2.266;2023-04-15T11:31:04;12.20;;;4.88;;
73100;SDS011;61288;53.446;-2.266;2023-04-15T11:33:32;12.32;;;3.67;;
73100;SDS011;61288;53.446;-2.266;2023-04-15T11:35:57;7.43;;;2.75;;
73100;SDS011;61288;53.446;-2.266;2023-04-15T11:38:23;8.40;;;3.58;;
73100;SDS011;61288;53.446;-2.266;2023-04-15T11:40:49;14.32;;;7.70;;
73100;SDS011;61288;53.446;-2.266;2023-04-15T11:43:19;10.43;;;4.13;;
73100;SDS011;61288;53.446;-2.266;2023-04-15T11:45:50;13.05;;;6.03;;
73100;SDS011;61288;53.446;-2.266;2023-04-15T11:50:42;10.48;;;2.92;;
73100;SDS011;61288;53.446;-2.266;2023-04-15T11:53:09;6.30;;;3.05;;
73100;SDS011;61288;53.446;-2.266;2023-04-15T11:55:46;10.55;;;4.00;;
73100;SDS011;61288;53.446;-2.266;2023-04-15T11:58:14;7.28;;;3.15;;
73100;SDS011;61288;53.446;-2.266;2023-04-15T12:00:54;7.47;;;2.65;;
73100;SDS011;61288;53.446;-2.266;2023-04-15T12:03:35;7.22;;;2.33;;
73100;SDS011;61288;53.446;-2.266;2023-04-15T12:06:09;7.95;;;2.65;;
73100;SDS011;61288;53.446;-2.266;2023-04-15T12:14:09;12.40;;;5.97;;
73100;SDS011;61288;53.446;-2.266;2023-04-15T12:16:38;8.70;;;3.60;;
73100;SDS011;61288;53.446;-2.266;2023-04-15T12:19:20;6.25;;;2.58;;
73100;SDS011;61288;53.446;-2.266;2023-04-15T12:22:02;6.85;;;2.38;;
73100;SDS011;61288;53.446;-2.266;2023-04-15T12:24:32;9.07;;;3.10;;
73100;SDS011;61288;53.446;-2.266;2023-04-15T12:27:05;6.40;;;2.40;;
73100;SDS011;61288;53.446;-2.266;2023-04-15T12:29:41;7.82;;;2.85;;
73100;SDS011;61288;53.446;-2.266;2023-04-15T12:32:08;6.53;;;2.60;;
73100;SDS011;61288;53.446;-2.266;2023-04-15T12:34:35;7.60;;;2.60;;
73100;SDS011;61288;53.446;-2.266;2023-04-15T12:37:03;6.72;;;2.72;;
73100;SDS011;61288;53.446;-2.266;2023-04-15T12:39:30;8.45;;;2.80;;
73100;SDS011;61288;53.446;-2.266;2023-04-15T12:41:59;6.80;;;2.42;;
73100;SDS011;61288;53.446;-2.266;2023-04-15T12:44:25;8.60;;;2.60;;
73100;SDS011;61288;53.446;-2.266;2023-04-15T12:46:52;5.35;;;2.10;;
73100;SDS011;61288;53.446;-2.266;2023-04-15T12:49:19;7.30;;;2.17;;
73100;SDS011;61288;53.446;-2.266;2023-04-15T12:51:46;5.20;;;2.00;;
73100;SDS011;61288;53.446;-2.266;2023-04-15T12:54:16;7.03;;;2.65;;
73100;SDS011;61288;53.446;-2.266;2023-04-15T12:56:43;7.72;;;2.83;;
73100;SDS011;61288;53.446;-2.266;2023-04-15T12:59:10;6.30;;;2.50;;
73100;SDS011;61288;53.446;-2.266;2023-04-15T13:01:37;6.25;;;2.88;;
73100;SDS011;61288;53.446;-2.266;2023-04-15T13:04:04;8.00;;;2.85;;
73100;SDS011;61288;53.446;-2.266;2023-04-15T13:06:29;6.07;;;2.58;;
73100;SDS011;61288;53.446;-2.266;2023-04-15T13:09:00;6.55;;;2.42;;
73100;SDS011;61288;53.446;-2.266;2023-04-15T13:11:27;6.35;;;2.53;;
73100;SDS011;61288;53.446;-2.266;2023-04-15T13:13:55;7.28;;;2.42;;
73100;SDS011;61288;53.446;-2.266;2023-04-15T13:16:22;5.10;;;2.10;;
73100;SDS011;61288;53.446;-2.266;2023-04-15T13:18:48;5.50;;;2.00;;
73100;SDS011;61288;53.446;-2.266;2023-04-15T13:21:14;6.20;;;2.08;;
73100;SDS011;61288;53.446;-2.266;2023-04-15T13:23:41;6.35;;;2.13;;
73100;SDS011;61288;53.446;-2.266;2023-04-15T13:26:06;7.05;;;2.72;;
73100;SDS011;61288;53.446;-2.266;2023-04-15T13:28:32;10.05;;;3.15;;
73100;SDS011;61288;53.446;-2.266;2023-04-15T13:30:58;6.40;;;2.72;;
73100;SDS011;61288;53.446;-2.266;2023-04-15T13:33:24;5.72;;;2.25;;
73100;SDS011;61288;53.446;-2.266;2023-04-15T13:35:50;7.88;;;2.50;;
73100;SDS011;61288;53.446;-2.266;2023-04-15T13:38:16;7.18;;;2.30;;
73100;SDS011;61288;53.446;-2.266;2023-04-15T13:40:42;5.75;;;2.55;;
73100;SDS011;61288;53.446;-2.266;2023-04-15T13:43:10;5.95;;;2.45;;
73100;SDS011;61288;53.446;-2.266;2023-04-15T13:45:36;5.63;;;2.53;;
73100;SDS011;61288;53.446;-2.266;2023-04-15T13:48:02;4.70;;;2.22;;
73100;SDS011;61288;53.446;-2.266;2023-04-15T13:50:28;5.78;;;2.38;;
73100;SDS011;61288;53.446;-2.266;2023-04-15T13:52:53;6.75;;;2.65;;
73100;SDS011;61288;53.446;-2.266;2023-04-15T13:55:19;5.38;;;2.40;;
73100;SDS011;61288;53.446;-2.266;2023-04-15T13:57:45;5.90;;;2.53;;
73100;SDS011;61288;53.446;-2.266;2023-04-15T14:00:11;4.63;;;2.20;;
73100;SDS011;61288;53.446;-2.266;2023-04-15T14:02:37;7.00;;;2.42;;
73100;SDS011;61288;53.446;-2.266;2023-04-15T14:05:04;6.00;;;2.10;;
73100;SDS011;61288;53.446;-2.266;2023-04-15T14:07:30;4.65;;;1.77;;
73100;SDS011;61288;53.446;-2.266;2023-04-15T14:09:55;6.20;;;2.45;;
73100;SDS011;61288;53.446;-2.266;2023-04-15T14:12:21;6.60;;;1.90;;
73100;SDS011;61288;53.446;-2.266;2023-04-15T14:14:46;5.38;;;2.22;;
73100;SDS011;61288;53.446;-2.266;2023-04-15T14:17:12;5.38;;;2.20;;
73100;SDS011;61288;53.446;-2.266;2023-04-15T14:19:37;7.15;;;2.30;;
73100;SDS011;61288;53.446;-2.266;2023-04-15T14:22:03;5.43;;;2.10;;
73100;SDS011;61288;53.446;-2.266;2023-04-15T14:24:29;4.75;;;2.05;;
73100;SDS011;61288;53.446;-2.266;2023-04-15T14:26:54;5.88;;;1.90;;
73100;SDS011;61288;53.446;-2.266;2023-04-15T14:29:21;3.63;;;1.80;;
73100;SDS011;61288;53.446;-2.266;2023-04-15T14:31:47;5.32;;;2.00;;
73100;SDS011;61288;53.446;-2.266;2023-04-15T14:34:14;5.25;;;1.90;;
73100;SDS011;61288;53.446;-2.266;2023-04-15T14:36:39;7.72;;;2.20;;
73100;SDS011;61288;53.446;-2.266;2023-04-15T14:39:06;5.82;;;2.45;;